Time;durP1;ratioP1;P1;durP2;ratioP2;P2;SDS_P1;SDS_P2;PMS_P1;PMS_P2;Temp;Humidity;BMP_temperature;BMP_pressure;BME280_temperature;BME280_humidity;BME280_pressure;Samples;Min_cycle;Max_cycle;Signal;HPM_P1;HPM_P2
2023/07/16 00:01:47;;;;;;;12.88;9.60;;;;;;;20.64;88.87;100221.47;7397744;19;20433;-65
2023/07/16 00:04:22;;;;;;;9.30;7.35;;;;;;;20.65;88.62;100223.19;7396208;19;20082;-65
2023/07/16 00:06:50;;;;;;;9.23;8.32;;;;;;;20.63;88.61;100225.09;7397979;19;20516;-65
2023/07/16 00:09:19;;;;;;;9.13;8.23;;;;;;;20.64;89.11;100227.66;7396221;19;20018;-64
2023/07/16 00:11:47;;;;;;;7.25;6.55;;;;;;;20.65;89.09;100240.03;7397862;19;20117;-65
2023/07/16 00:14:18;;;;;;;8.10;6.75;;;;;;;20.69;89.02;100248.66;7397786;19;20533;-65
2023/07/16 00:16:47;;;;;;;8.93;7.20;;;;;;;20.70;89.00;100247.69;7396440;19;20139;-65
2023/07/16 00:19:17;;;;;;;9.15;7.35;;;;;;;20.72;88.80;100244.94;7397542;19;20365;-65
2023/07/16 00:21:46;;;;;;;8.10;6.88;;;;;;;20.73;88.89;100246.66;7396303;19;20409;-65
2023/07/16 00:24:14;;;;;;;7.72;6.55;;;;;;;20.72;88.83;100255.59;7395380;19;20082;-65
2023/07/16 00:26:43;;;;;;;8.27;6.55;;;;;;;20.71;88.96;100265.41;7397640;19;20018;-65
2023/07/16 00:29:12;;;;;;;8.65;6.63;;;;;;;20.70;88.86;100274.34;7397536;19;20035;-65
2023/07/16 00:31:43;;;;;;;7.10;6.40;;;;;;;20.71;88.75;100277.88;7395090;19;20018;-65
2023/07/16 00:34:12;;;;;;;9.70;6.82;;;;;;;20.71;88.92;100285.88;7397911;19;20022;-65
2023/07/16 00:36:41;;;;;;;9.43;7.50;;;;;;;20.67;89.10;100318.06;7397402;19;20018;-65
2023/07/16 00:39:10;;;;;;;7.55;6.75;;;;;;;20.66;88.96;100337.69;7395540;19;20018;-65
2023/07/16 00:41:38;;;;;;;6.93;5.88;;;;;;;20.61;88.91;100355.81;7396372;19;20499;-65
2023/07/16 00:44:07;;;;;;;6.70;6.10;;;;;;;20.55;88.65;100398.00;7395254;19;20022;-65
2023/07/16 00:46:35;;;;;;;8.38;5.40;;;;;;;20.48;89.49;100433.06;7395326;19;20039;-65
2023/07/16 00:49:07;;;;;;;8.43;6.47;;;;;;;20.44;89.13;100454.72;7396971;19;20103;-65
2023/07/16 00:51:35;;;;;;;6.55;5.82;;;;;;;20.41;89.05;100477.09;7393141;19;20032;-66
2023/07/16 00:54:04;;;;;;;7.00;5.65;;;;;;;20.44;88.82;100514.16;7395173;19;20022;-65
2023/07/16 00:56:33;;;;;;;8.00;5.70;;;;;;;20.48;89.09;100520.16;7394985;19;20022;-65
2023/07/16 00:59:01;;;;;;;21.73;6.32;;;;;;;20.50;88.98;100520.91;7394899;19;20031;-65
2023/07/16 01:01:29;;;;;;;8.52;5.95;;;;;;;20.50;89.26;100524.41;7396167;19;20493;-66
2023/07/16 01:03:58;;;;;;;6.53;5.78;;;;;;;20.50;88.88;100528.91;7394608;19;20023;-66
2023/07/16 01:06:36;;;;;;;8.88;5.70;;;;;;;20.50;89.09;100527.09;7394227;19;20070;-66
2023/07/16 01:09:09;;;;;;;9.32;4.85;;;;;;;20.53;88.67;100522.53;7396726;19;20043;-66
2023/07/16 01:11:38;;;;;;;6.55;5.03;;;;;;;20.56;87.70;100503.66;7394807;19;20019;-65
2023/07/16 01:14:09;;;;;;;8.10;4.55;;;;;;;20.60;87.17;100503.34;7394475;19;20072;-70
2023/07/16 01:16:38;;;;;;;6.07;4.75;;;;;;;20.67;86.87;100499.31;7396463;19;20018;-70
2023/07/16 01:19:06;;;;;;;4.97;4.30;;;;;;;20.74;86.45;100478.44;7394224;19;20031;-69
2023/07/16 01:21:45;;;;;;;7.82;4.28;;;;;;;20.81;85.73;100494.84;7395586;19;20014;-69
2023/07/16 01:24:43;;;;;;;5.88;4.25;;;;;;;20.84;85.21;100497.34;7395143;19;20031;-68
2023/07/16 01:27:32;;;;;;;5.75;4.15;;;;;;;20.89;84.83;100510.31;7395330;19;20015;-68
2023/07/16 01:30:05;;;;;;;4.43;3.95;;;;;;;20.89;84.83;100503.19;7395267;19;20078;-68
2023/07/16 01:32:35;;;;;;;4.72;4.18;;;;;;;20.90;85.46;100488.03;7394287;19;20019;-69
2023/07/16 01:35:05;;;;;;;5.65;4.53;;;;;;;20.83;88.01;100487.63;7394398;19;20018;-68
2023/07/16 01:37:34;;;;;;;5.28;4.78;;;;;;;20.59;89.39;100480.31;7393846;19;20039;-67
2023/07/16 01:40:03;;;;;;;6.47;5.43;;;;;;;20.30;93.43;100459.16;7395366;19;20031;-66
2023/07/16 01:42:32;;;;;;;6.18;5.18;;;;;;;20.09;92.95;100453.44;7394233;19;20350;-66
2023/07/16 01:45:03;;;;;;;6.97;5.75;;;;;;;19.93;93.63;100434.13;7394728;19;20082;-67
2023/07/16 01:47:41;;;;;;;8.00;5.85;;;;;;;19.80;94.66;100432.25;7393682;19;20019;-66
2023/07/16 01:50:08;;;;;;;7.03;5.95;;;;;;;19.70;95.86;100428.47;7393129;19;20027;-67
2023/07/16 01:52:37;;;;;;;7.32;6.10;;;;;;;19.61;95.96;100423.75;7394174;19;20023;-66
2023/07/16 01:55:06;;;;;;;8.95;6.13;;;;;;;19.57;96.79;100432.88;7394813;19;20015;-67
2023/07/16 01:57:34;;;;;;;8.05;6.80;;;;;;;19.52;97.27;100460.66;7394655;19;20365;-66
2023/07/16 02:00:07;;;;;;;11.13;6.88;;;;;;;19.51;97.81;100460.72;7394995;19;20015;-67
2023/07/16 02:02:36;;;;;;;8.77;7.10;;;;;;;19.48;98.13;100466.25;7393663;19;20104;-67
2023/07/16 02:05:05;;;;;;;7.85;6.68;;;;;;;19.45;98.90;100475.28;7398307;19;20028;-67
2023/07/16 02:07:34;;;;;;;8.27;7.05;;;;;;;19.44;100.00;100486.88;7402069;19;20380;-66
2023/07/16 02:10:02;;;;;;;9.73;7.30;;;;;;;19.42;99.25;100456.00;7399210;19;20033;-68
2023/07/16 02:12:31;;;;;;;9.73;7.35;;;;;;;19.40;99.67;100465.88;7401102;19;20354;-68
2023/07/16 02:14:59;;;;;;;13.20;7.25;;;;;;;19.37;100.00;100483.75;7402336;19;20015;-67
2023/07/16 02:17:30;;;;;;;8.00;7.30;;;;;;;19.34;100.00;100485.75;7399286;19;20022;-67
2023/07/16 02:19:59;;;;;;;9.52;7.63;;;;;;;19.32;100.00;100483.19;7402448;19;20026;-67
2023/07/16 02:22:27;;;;;;;9.13;7.40;;;;;;;19.30;100.00;100469.13;7400553;19;20078;-67
2023/07/16 02:24:56;;;;;;;9.70;8.38;;;;;;;19.31;100.00;100469.97;7400619;19;20018;-67
2023/07/16 02:27:24;;;;;;;8.50;7.70;;;;;;;19.30;100.00;100477.09;7401702;19;20086;-67
2023/07/16 02:29:53;;;;;;;8.23;6.88;;;;;;;19.31;100.00;100468.19;7401282;19;20548;-67
2023/07/16 02:32:21;;;;;;;17.17;7.90;;;;;;;19.31;100.00;100483.25;7398258;19;20022;-66
2023/07/16 02:34:52;;;;;;;9.48;7.72;;;;;;;19.31;100.00;100494.78;7399555;19;20026;-67
2023/07/16 02:37:21;;;;;;;11.10;7.60;;;;;;;19.30;100.00;100495.72;7401006;19;20484;-67
2023/07/16 02:39:49;;;;;;;9.57;7.70;;;;;;;19.31;100.00;100497.44;7398163;19;20031;-67
2023/07/16 02:42:18;;;;;;;11.23;8.60;;;;;;;19.31;100.00;100499.22;7400107;19;20021;-67
2023/07/16 02:44:47;;;;;;;9.85;8.13;;;;;;;19.30;100.00;100489.56;7400731;19;20022;-67
2023/07/16 02:47:15;;;;;;;10.38;8.13;;;;;;;19.30;100.00;100479.75;7401073;19;20025;-67
2023/07/16 02:49:44;;;;;;;8.30;7.50;;;;;;;19.30;100.00;100470.94;7401024;19;20018;-67
2023/07/16 02:52:15;;;;;;;9.27;7.95;;;;;;;19.31;100.00;100472.63;7398211;19;20019;-67
2023/07/16 02:54:43;;;;;;;10.30;8.07;;;;;;;19.32;100.00;100463.69;7398731;19;20018;-67
2023/07/16 02:57:12;;;;;;;9.15;7.80;;;;;;;19.33;100.00;100450.31;7400390;19;20022;-67
2023/07/16 02:59:40;;;;;;;9.77;8.10;;;;;;;19.34;100.00;100451.16;7397844;19;20476;-67
2023/07/16 03:02:08;;;;;;;12.25;7.72;;;;;;;19.34;100.00;100461.81;7397621;19;20476;-67
2023/07/16 03:04:37;;;;;;;9.07;8.15;;;;;;;19.33;100.00;100476.06;7397920;19;20082;-67
2023/07/16 03:07:06;;;;;;;9.88;7.93;;;;;;;19.33;100.00;100479.56;7397403;19;20423;-67
2023/07/16 03:09:37;;;;;;;11.90;10.38;;;;;;;19.32;100.00;100456.59;7397523;19;20449;-67
2023/07/16 03:12:07;;;;;;;19.05;14.00;;;;;;;19.33;100.00;100446.78;7398081;19;20058;-67
2023/07/16 03:14:35;;;;;;;14.63;11.63;;;;;;;19.33;100.00;100426.34;7399438;19;20379;-67
2023/07/16 03:17:06;;;;;;;10.45;9.00;;;;;;;19.33;100.00;100446.78;7400109;19;20019;-67
2023/07/16 03:19:35;;;;;;;10.38;7.60;;;;;;;19.32;100.00;100477.88;7399699;19;20376;-67
2023/07/16 03:22:03;;;;;;;8.25;7.45;;;;;;;19.31;100.00;100481.47;7399282;19;20018;-67
2023/07/16 03:24:32;;;;;;;9.90;7.10;;;;;;;19.29;100.00;100471.88;7399987;19;20018;-67
2023/07/16 03:27:03;;;;;;;9.68;6.63;;;;;;;19.25;100.00;100457.91;7397357;19;20018;-67
2023/07/16 03:32:08;;;;;;;8.95;6.00;;;;;;;19.20;100.00;100418.31;7397005;19;20015;-67
2023/07/16 03:34:36;;;;;;;7.57;6.05;;;;;;;19.19;100.00;100421.91;7399569;19;20082;-67
2023/07/16 03:37:05;;;;;;;6.45;5.50;;;;;;;19.19;100.00;100442.34;7397205;19;20078;-67
2023/07/16 03:39:33;;;;;;;7.40;5.43;;;;;;;19.18;100.00;100440.63;7397097;19;20024;-67
2023/07/16 03:42:05;;;;;;;5.75;5.13;;;;;;;19.15;100.00;100447.00;7398280;19;20617;-67
2023/07/16 03:44:33;;;;;;;6.95;5.45;;;;;;;19.15;100.00;100467.44;7398890;19;20532;-67
2023/07/16 03:47:02;;;;;;;8.68;5.07;;;;;;;19.13;100.00;100487.94;7396795;19;20078;-67
2023/07/16 03:49:30;;;;;;;6.00;5.18;;;;;;;19.11;100.00;100500.47;7396457;19;20090;-67
2023/07/16 03:51:58;;;;;;;6.70;5.05;;;;;;;19.09;100.00;100489.06;7396533;19;20023;-67
2023/07/16 03:54:27;;;;;;;5.95;4.88;;;;;;;19.08;100.00;100480.22;7396724;19;20018;-67
2023/07/16 03:56:55;;;;;;;6.00;5.00;;;;;;;19.09;100.00;100479.28;7396680;19;20026;-67
2023/07/16 03:59:26;;;;;;;7.90;4.28;;;;;;;19.09;100.00;100459.84;7398709;19;20018;-67
2023/07/16 04:01:55;;;;;;;5.93;4.82;;;;;;;19.10;100.00;100454.41;7396914;19;20078;-67
2023/07/16 04:04:23;;;;;;;5.43;4.50;;;;;;;19.11;100.00;100463.22;7396328;19;20094;-67
2023/07/16 04:06:52;;;;;;;8.43;3.97;;;;;;;19.12;100.00;100475.59;7396217;19;20489;-67
2023/07/16 04:09:20;;;;;;;4.63;4.22;;;;;;;19.11;100.00;100480.06;7396150;19;20086;-67
2023/07/16 04:11:49;;;;;;;4.43;4.03;;;;;;;19.11;100.00;100484.50;7396049;19;20085;-67
2023/07/16 04:14:17;;;;;;;4.70;4.30;;;;;;;19.11;100.00;100482.72;7395792;19;20458;-67
2023/07/16 04:16:48;;;;;;;8.05;4.20;;;;;;;19.11;100.00;100474.75;7397986;19;20077;-67
2023/07/16 04:19:16;;;;;;;4.32;3.78;;;;;;;19.11;100.00;100471.22;7396425;19;20023;-67
2023/07/16 04:21:45;;;;;;;5.47;4.25;;;;;;;19.11;100.00;100445.50;7397389;19;20015;-67
2023/07/16 04:24:13;;;;;;;5.05;3.95;;;;;;;19.12;100.00;100473.78;7397844;19;20018;-67
2023/07/16 04:26:42;;;;;;;6.00;3.90;;;;;;;19.13;100.00;100474.63;7393557;19;20014;-67
2023/07/16 04:29:10;;;;;;;7.20;4.20;;;;;;;19.13;100.00;100490.59;7395867;19;20090;-67
2023/07/16 04:31:39;;;;;;;5.78;4.10;;;;;;;19.12;100.00;100484.44;7395183;19;20082;-67
2023/07/16 04:34:10;;;;;;;4.88;3.70;;;;;;;19.12;100.00;100497.72;7397094;19;20453;-67
2023/07/16 04:36:38;;;;;;;6.60;3.67;;;;;;;19.12;100.00;100516.34;7397090;19;20078;-67
2023/07/16 04:39:07;;;;;;;4.53;4.03;;;;;;;19.12;100.00;100520.78;7395555;19;20078;-67
2023/07/16 04:41:35;;;;;;;5.50;4.35;;;;;;;19.13;100.00;100517.19;7395328;19;20081;-67
2023/07/16 04:44:03;;;;;;;6.50;4.45;;;;;;;19.13;100.00;100519.84;7397116;19;20086;-67
2023/07/16 04:46:32;;;;;;;8.60;4.40;;;;;;;19.14;100.00;100517.09;7395213;19;20078;-67
2023/07/16 04:49:01;;;;;;;6.03;4.35;;;;;;;19.17;100.00;100535.53;7395349;19;20029;-68
2023/07/16 04:51:32;;;;;;;6.60;4.75;;;;;;;19.18;100.00;100562.97;7396632;19;20018;-67
2023/07/16 04:54:00;;;;;;;7.15;4.57;;;;;;;19.18;100.00;100560.31;7397334;19;20074;-68
2023/07/16 04:56:29;;;;;;;4.80;4.07;;;;;;;19.19;100.00;100540.75;7394961;19;20034;-67
2023/07/16 04:58:57;;;;;;;6.68;4.50;;;;;;;19.20;100.00;100545.13;7395080;19;20014;-68
2023/07/16 05:01:26;;;;;;;5.88;5.32;;;;;;;19.22;100.00;100551.19;7396598;19;20085;-68
2023/07/16 05:03:55;;;;;;;6.22;5.15;;;;;;;19.25;100.00;100566.97;7396522;19;20025;-67
2023/07/16 05:06:23;;;;;;;6.53;5.40;;;;;;;19.29;100.00;100557.00;7394525;19;20521;-67
2023/07/16 05:08:54;;;;;;;7.05;5.32;;;;;;;19.32;100.00;100554.13;7394639;19;20074;-67
2023/07/16 05:11:23;;;;;;;8.05;5.35;;;;;;;19.36;100.00;100553.84;7396807;19;20419;-67
2023/07/16 05:13:51;;;;;;;7.43;5.18;;;;;;;19.41;100.00;100550.06;7394590;19;20026;-67
2023/07/16 05:16:20;;;;;;;5.63;5.13;;;;;;;19.45;100.00;100559.53;7395821;19;20081;-67
2023/07/16 05:18:48;;;;;;;5.38;4.88;;;;;;;19.49;100.00;100563.75;7396082;19;20074;-68
2023/07/16 05:21:23;;;;;;;5.38;4.90;;;;;;;19.54;100.00;100574.97;7394305;19;20078;-66
2023/07/16 05:23:54;;;;;;;6.18;4.57;;;;;;;19.58;100.00;100573.81;7394232;19;20091;-68
2023/07/16 05:26:22;;;;;;;7.38;4.65;;;;;;;19.65;100.00;100579.59;7394203;19;20035;-68
2023/07/16 05:28:51;;;;;;;6.63;4.30;;;;;;;19.72;100.00;100570.28;7395418;19;20469;-68
2023/07/16 05:31:20;;;;;;;5.78;4.18;;;;;;;19.80;100.00;100577.78;7393674;19;20544;-67
2023/07/16 05:33:48;;;;;;;7.80;4.63;;;;;;;19.87;100.00;100589.78;7393875;19;20070;-68
2023/07/16 05:36:23;;;;;;;6.40;4.47;;;;;;;19.96;99.09;100588.34;7393466;19;20086;-68
2023/07/16 05:39:01;;;;;;;4.65;3.78;;;;;;;20.03;99.06;100589.69;7395565;19;20154;-68
2023/07/16 05:41:30;;;;;;;5.45;4.40;;;;;;;20.11;98.91;100589.19;7393204;19;20529;-67
2023/07/16 05:43:58;;;;;;;6.43;4.07;;;;;;;20.16;98.03;100584.41;7393646;19;20019;-68
2023/07/16 05:46:27;;;;;;;5.90;4.18;;;;;;;20.21;97.63;100587.63;7393918;19;20081;-68
2023/07/16 05:48:55;;;;;;;4.85;4.15;;;;;;;20.25;97.46;100593.63;7393179;19;20090;-68
2023/07/16 05:51:24;;;;;;;5.97;3.70;;;;;;;20.26;96.74;100582.84;7393357;19;20078;-67
2023/07/16 05:53:55;;;;;;;4.65;4.07;;;;;;;20.29;96.94;100584.47;7393253;19;20078;-68
2023/07/16 05:56:23;;;;;;;5.47;4.00;;;;;;;20.32;96.93;100587.78;7394759;19;20090;-68
2023/07/16 05:58:51;;;;;;;6.07;4.18;;;;;;;20.39;96.29;100587.38;7394679;19;20438;-68
2023/07/16 06:01:20;;;;;;;4.70;3.88;;;;;;;20.46;96.33;100589.53;7394863;19;20031;-68
2023/07/16 06:03:48;;;;;;;4.50;3.85;;;;;;;20.53;95.89;100589.97;7392895;19;20022;-68
2023/07/16 06:06:29;;;;;;;5.72;3.83;;;;;;;20.57;94.98;100593.31;7391987;19;20082;-68
2023/07/16 06:09:00;;;;;;;4.45;3.72;;;;;;;20.58;95.16;100593.19;7393279;19;20085;-68
2023/07/16 06:11:29;;;;;;;5.32;3.70;;;;;;;20.60;94.65;100593.97;7394889;19;20102;-67
2023/07/16 06:13:57;;;;;;;6.65;3.90;;;;;;;20.62;94.76;100592.03;7394416;19;20085;-68
2023/07/16 06:16:26;;;;;;;5.43;3.80;;;;;;;20.63;93.29;100596.41;7392233;19;20436;-68
2023/07/16 06:18:54;;;;;;;5.18;3.60;;;;;;;20.64;92.85;100603.44;7392344;19;20074;-68
2023/07/16 06:21:23;;;;;;;9.65;3.92;;;;;;;20.67;92.26;100605.06;7394266;19;20090;-68
2023/07/16 06:23:51;;;;;;;4.85;3.45;;;;;;;20.68;92.30;100606.78;7391748;19;20086;-68
2023/07/16 06:26:22;;;;;;;4.55;3.30;;;;;;;20.71;91.25;100616.41;7391989;19;20081;-68
2023/07/16 06:28:51;;;;;;;7.40;3.42;;;;;;;20.72;91.31;100618.97;7391834;19;20544;-68
2023/07/16 06:31:20;;;;;;;4.18;3.25;;;;;;;20.74;91.24;100616.19;7391986;19;20022;-68
2023/07/16 06:33:50;;;;;;;4.65;2.97;;;;;;;20.76;90.87;100620.50;7391642;19;20036;-68
2023/07/16 06:36:20;;;;;;;3.78;3.00;;;;;;;20.79;89.82;100619.44;7394247;19;20018;-69
2023/07/16 06:38:48;;;;;;;3.85;3.17;;;;;;;20.80;89.61;100607.78;7393730;19;20019;-68
2023/07/16 06:41:17;;;;;;;4.43;3.35;;;;;;;20.83;88.73;100615.59;7393255;19;20513;-68
2023/07/16 06:43:48;;;;;;;5.05;3.15;;;;;;;20.85;88.18;100623.47;7391636;19;20090;-68
2023/07/16 06:46:16;;;;;;;3.55;3.25;;;;;;;20.91;88.96;100617.75;7393469;19;20022;-68
2023/07/16 06:48:45;;;;;;;6.03;2.85;;;;;;;20.96;88.62;100616.47;7393199;19;20051;-68
2023/07/16 06:51:13;;;;;;;3.88;3.17;;;;;;;21.01;87.13;100615.31;7395495;19;20082;-68
2023/07/16 06:53:42;;;;;;;4.30;2.80;;;;;;;21.05;86.91;100620.31;7397525;19;20025;-68
2023/07/16 06:56:10;;;;;;;5.90;2.95;;;;;;;21.10;87.00;100630.69;7400214;19;20030;-68
2023/07/16 06:58:39;;;;;;;4.68;3.17;;;;;;;21.15;84.49;100637.44;7397713;19;20014;-68
2023/07/16 07:01:10;;;;;;;7.45;3.10;;;;;;;21.20;84.20;100626.44;7401677;19;20544;-68
2023/07/16 07:03:38;;;;;;;7.00;2.38;;;;;;;21.25;84.38;100632.28;7397567;19;20083;-66
2023/07/16 07:06:10;;;;;;;4.72;2.55;;;;;;;21.30;84.00;100638.16;7398615;19;20023;-68
2023/07/16 07:08:39;;;;;;;4.03;2.67;;;;;;;21.35;82.83;100637.88;7400521;19;20037;-66
2023/07/16 07:11:07;;;;;;;3.75;2.35;;;;;;;21.40;81.09;100645.56;7399997;19;20090;-66
2023/07/16 07:13:36;;;;;;;4.30;2.70;;;;;;;21.45;80.87;100638.94;7397237;19;20494;-67
2023/07/16 07:16:04;;;;;;;6.00;2.50;;;;;;;21.51;79.67;100647.47;7399910;19;20082;-68
2023/07/16 07:18:35;;;;;;;3.30;2.58;;;;;;;21.55;77.55;100660.53;7400296;19;20022;-67
2023/07/16 07:21:04;;;;;;;3.72;2.40;;;;;;;21.60;77.19;100666.41;7396556;19;20418;-67
2023/07/16 07:23:32;;;;;;;5.80;2.47;;;;;;;21.64;78.73;100657.22;7397159;19;20074;-68
2023/07/16 07:26:00;;;;;;;4.57;2.75;;;;;;;21.71;77.57;100652.31;7399676;19;20022;-68
2023/07/16 07:28:30;;;;;;;3.63;2.35;;;;;;;21.77;76.35;100659.91;7397325;19;20014;-67
2023/07/16 07:30:58;;;;;;;2.45;1.85;;;;;;;21.80;76.90;100657.00;7399546;19;20026;-68
2023/07/16 07:33:27;;;;;;;4.50;2.25;;;;;;;21.87;76.91;100662.75;7397336;19;20078;-68
2023/07/16 07:35:58;;;;;;;3.83;2.42;;;;;;;21.95;73.50;100668.44;7398998;19;20078;-68
2023/07/16 07:38:28;;;;;;;8.02;2.42;;;;;;;22.02;74.50;100666.16;7396641;19;20014;-68
2023/07/16 07:40:56;;;;;;;3.47;1.95;;;;;;;22.10;73.81;100674.50;7398776;19;20023;-68
2023/07/16 07:43:25;;;;;;;3.03;1.77;;;;;;;22.19;74.87;100675.66;7396593;19;20035;-67
2023/07/16 07:45:53;;;;;;;2.80;2.38;;;;;;;22.29;74.71;100660.66;7398870;19;20090;-68
2023/07/16 07:48:22;;;;;;;4.78;2.45;;;;;;;22.38;73.75;100667.19;7396905;19;20463;-68
2023/07/16 07:50:50;;;;;;;2.50;2.30;;;;;;;22.45;72.43;100686.28;7398142;19;20019;-68
2023/07/16 07:53:22;;;;;;;3.85;2.20;;;;;;;22.50;71.66;100681.47;7396562;19;20089;-68
2023/07/16 07:55:50;;;;;;;2.20;1.98;;;;;;;22.54;70.13;100690.97;7398926;19;20037;-68
2023/07/16 07:58:18;;;;;;;4.18;2.42;;;;;;;22.57;71.79;100674.72;7395994;19;20022;-68
2023/07/16 08:00:47;;;;;;;3.38;2.08;;;;;;;22.64;69.94;100692.97;7396244;19;20102;-68
2023/07/16 08:03:15;;;;;;;4.10;2.13;;;;;;;22.70;70.53;100676.47;7396115;19;20015;-68
2023/07/16 08:05:44;;;;;;;5.45;2.38;;;;;;;22.80;68.81;100690.00;7397343;19;20553;-68
2023/07/16 08:08:12;;;;;;;4.40;1.88;;;;;;;22.87;70.03;100697.44;7396824;19;20082;-68
2023/07/16 08:10:45;;;;;;;3.53;2.00;;;;;;;22.94;69.18;100689.84;7397428;19;20083;-68
2023/07/16 08:13:14;;;;;;;;;;;;;;;23.01;68.09;100700.94;7397477;19;20082;-69
2023/07/16 08:15:42;;;;;;;5.18;1.80;;;;;;;23.08;70.01;100700.34;7398606;19;19932;-68
2023/07/16 08:18:11;;;;;;;5.03;2.45;;;;;;;23.12;69.27;100698.28;7395720;19;20094;-69
2023/07/16 08:20:40;;;;;;;3.70;1.98;;;;;;;23.15;68.23;100698.13;7397380;19;20082;-68
2023/07/16 08:23:09;;;;;;;3.55;2.10;;;;;;;23.16;67.86;100704.31;7396163;19;20018;-68
2023/07/16 08:25:37;;;;;;;3.65;2.08;;;;;;;23.17;67.77;100704.19;7397106;19;20498;-68
2023/07/16 08:28:08;;;;;;;3.55;1.88;;;;;;;23.22;66.90;100712.72;7395670;19;20516;-68
2023/07/16 08:30:37;;;;;;;5.95;2.00;;;;;;;23.28;66.88;100698.03;7397613;19;20369;-68
2023/07/16 08:33:05;;;;;;;2.78;2.05;;;;;;;23.34;66.89;100702.91;7395293;19;20383;-68
2023/07/16 08:35:34;;;;;;;5.22;2.03;;;;;;;23.43;66.95;100707.56;7395335;19;20026;-67
2023/07/16 08:38:02;;;;;;;3.83;1.95;;;;;;;23.52;65.25;100714.03;7397242;19;20018;-68
2023/07/16 08:40:31;;;;;;;4.82;2.58;;;;;;;23.57;65.14;100711.84;7396763;19;20074;-68
2023/07/16 08:43:00;;;;;;;4.35;1.73;;;;;;;23.58;64.73;100713.56;7394792;19;20074;-68
2023/07/16 08:45:32;;;;;;;4.07;1.83;;;;;;;23.62;64.56;100718.66;7396592;19;20189;-68
2023/07/16 08:48:01;;;;;;;3.55;1.75;;;;;;;23.64;64.06;100709.53;7395827;19;20074;-68
2023/07/16 08:50:30;;;;;;;2.28;1.55;;;;;;;23.68;63.50;100716.38;7396615;19;20031;-68
2023/07/16 08:52:59;;;;;;;2.97;1.95;;;;;;;23.74;63.34;100704.31;7394885;19;20078;-68
2023/07/16 08:55:28;;;;;;;6.30;2.40;;;;;;;23.80;63.09;100706.53;7396161;19;20070;-68
2023/07/16 08:57:56;;;;;;;2.47;1.88;;;;;;;23.84;61.87;100702.63;7395616;19;20544;-68
2023/07/16 09:00:26;;;;;;;3.72;1.75;;;;;;;23.91;61.88;100706.56;7396034;19;20078;-68
2023/07/16 09:02:57;;;;;;;3.15;1.70;;;;;;;23.96;61.72;100697.31;7394839;19;20097;-68
2023/07/16 09:05:26;;;;;;;4.15;1.95;;;;;;;24.02;61.93;100699.50;7396384;19;20082;-69
2023/07/16 09:08:01;;;;;;;3.53;2.33;;;;;;;24.12;60.78;100700.47;7393734;19;20010;-69
2023/07/16 09:10:29;;;;;;;2.40;1.73;;;;;;;24.21;61.00;100715.84;7393973;19;20019;-69
2023/07/16 09:13:00;;;;;;;4.78;2.50;;;;;;;24.29;59.75;100701.81;7393194;19;20019;-68
2023/07/16 09:15:31;;;;;;;2.85;1.95;;;;;;;24.40;59.73;100708.97;7395318;19;20095;-69
2023/07/16 09:18:02;;;;;;;4.15;1.90;;;;;;;24.48;58.22;100717.25;7396497;19;20097;-69
2023/07/16 09:20:31;;;;;;;2.35;1.67;;;;;;;24.53;58.91;100714.22;7395573;19;20178;-68
2023/07/16 09:23:00;;;;;;;3.35;1.60;;;;;;;24.59;58.41;100713.69;7394916;19;20090;-68
2023/07/16 09:25:29;;;;;;;3.28;1.90;;;;;;;24.64;56.87;100718.69;7395509;19;20074;-69
2023/07/16 09:28:00;;;;;;;2.45;1.70;;;;;;;24.72;55.78;100718.94;7394898;19;20097;-69
2023/07/16 09:30:33;;;;;;;4.18;1.85;;;;;;;24.80;55.69;100721.00;7395820;19;20078;-68
2023/07/16 09:33:13;;;;;;;3.15;1.67;;;;;;;24.90;53.32;100724.63;7394403;19;20073;-68
2023/07/16 09:35:41;;;;;;;7.72;1.95;;;;;;;25.01;55.69;100707.59;7395743;19;20019;-69
2023/07/16 09:38:11;;;;;;;2.85;1.50;;;;;;;25.08;53.40;100722.22;7395747;19;20075;-69
2023/07/16 09:40:42;;;;;;;4.20;1.48;;;;;;;25.17;53.86;100718.78;7395328;19;20030;-69
2023/07/16 09:43:11;;;;;;;3.72;1.38;;;;;;;25.25;53.08;100726.19;7393990;19;20025;-68
2023/07/16 09:45:40;;;;;;;3.38;1.40;;;;;;;25.30;50.97;100723.97;7395082;19;20019;-68
2023/07/16 09:48:12;;;;;;;3.50;1.50;;;;;;;25.38;50.94;100723.34;7392991;19;20477;-68
2023/07/16 09:50:45;;;;;;;4.05;1.55;;;;;;;25.45;50.05;100718.31;7395215;19;20074;-69
2023/07/16 09:53:15;;;;;;;5.22;1.95;;;;;;;25.53;50.38;100731.94;7393742;19;20035;-69
2023/07/16 09:55:43;;;;;;;2.17;1.10;;;;;;;25.58;50.03;100727.03;7393157;19;20022;-68
2023/07/16 09:58:14;;;;;;;2.60;1.60;;;;;;;25.61;50.47;100731.28;7392906;19;20074;-69
2023/07/16 10:00:44;;;;;;;4.07;2.55;;;;;;;25.57;50.79;100716.41;7395136;19;20022;-68
2023/07/16 10:03:15;;;;;;;4.10;1.63;;;;;;;25.56;48.76;100728.97;7392822;19;20018;-69
2023/07/16 10:05:43;;;;;;;5.35;1.55;;;;;;;25.58;48.57;100736.91;7394513;19;20078;-69
2023/07/16 10:08:20;;;;;;;5.00;1.33;;;;;;;25.58;47.37;100732.41;7392437;19;20086;-69
2023/07/16 10:10:51;;;;;;;1.85;1.30;;;;;;;25.59;47.26;100733.22;7394948;19;20097;-69
2023/07/16 10:13:20;;;;;;;3.85;1.55;;;;;;;25.63;47.39;100726.59;7392627;19;20022;-69
2023/07/16 10:15:56;;;;;;;4.10;1.70;;;;;;;25.67;44.03;100720.84;7395000;19;20082;-68
2023/07/16 10:18:33;;;;;;;5.40;1.30;;;;;;;25.72;43.42;100731.22;7394448;19;20090;-68
2023/07/16 10:21:07;;;;;;;4.20;1.33;;;;;;;25.76;42.90;100735.31;7394828;19;20018;-67
2023/07/16 10:23:42;;;;;;;6.60;1.50;;;;;;;25.83;43.77;100746.38;7392396;19;20025;-68
2023/07/16 10:26:13;;;;;;;6.35;1.80;;;;;;;25.92;45.67;100742.03;7399276;19;20023;-68
2023/07/16 10:28:41;;;;;;;3.22;1.40;;;;;;;26.00;45.57;100740.41;7400089;19;20094;-68
2023/07/16 10:31:20;;;;;;;3.05;1.58;;;;;;;26.00;43.83;100759.22;7401695;19;20082;-68
2023/07/16 10:34:04;;;;;;;3.10;1.65;;;;;;;25.93;43.92;100751.81;7398736;19;20018;-69
2023/07/16 10:36:32;;;;;;;3.63;1.60;;;;;;;25.78;45.30;100749.50;7401650;19;20018;-68
2023/07/16 10:39:10;;;;;;;4.10;1.50;;;;;;;25.65;44.97;100752.34;7398208;19;20513;-69
2023/07/16 10:41:38;;;;;;;4.60;1.67;;;;;;;25.59;45.61;100744.84;7398000;19;20019;-68
2023/07/16 10:44:10;;;;;;;5.65;1.52;;;;;;;25.55;45.45;100745.22;7400827;19;20549;-68
2023/07/16 10:46:39;;;;;;;3.05;1.50;;;;;;;25.57;44.71;100749.50;7400076;19;20027;-69
2023/07/16 10:49:10;;;;;;;3.25;1.42;;;;;;;25.60;44.23;100748.38;7398244;19;20081;-69
2023/07/16 10:51:39;;;;;;;5.32;1.55;;;;;;;25.63;45.00;100750.78;7401107;19;20085;-68
2023/07/16 10:54:07;;;;;;;3.40;1.50;;;;;;;25.67;44.44;100746.88;7400581;19;20078;-68
2023/07/16 10:56:39;;;;;;;2.83;1.55;;;;;;;25.68;42.87;100738.69;7400520;19;20019;-68
2023/07/16 10:59:07;;;;;;;5.07;1.13;;;;;;;25.77;43.19;100736.16;7401038;19;20014;-67
2023/07/16 11:01:36;;;;;;;5.18;1.67;;;;;;;25.85;43.46;100755.19;7400378;19;20082;-68
2023/07/16 11:04:04;;;;;;;3.55;1.50;;;;;;;25.93;42.42;100751.81;7400415;19;20082;-68
2023/07/16 11:06:35;;;;;;;4.68;1.58;;;;;;;26.00;41.06;100761.91;7399729;19;20102;-69
2023/07/16 11:09:09;;;;;;;1.65;0.98;;;;;;;26.09;40.94;100764.81;7398077;19;20474;-68
2023/07/16 11:11:37;;;;;;;;;;;;;;;26.16;40.31;100776.72;7401064;19;20018;-68
2023/07/16 11:14:07;;;;;;;19.23;2.25;;;;;;;26.26;40.02;100755.25;7397610;19;19975;-68
2023/07/16 11:16:36;;;;;;;5.50;1.48;;;;;;;26.30;39.43;100768.31;7400226;19;20023;-68
2023/07/16 11:19:07;;;;;;;4.05;1.35;;;;;;;26.33;39.53;100751.88;7400715;19;20026;-68
2023/07/16 11:21:39;;;;;;;3.38;1.33;;;;;;;26.43;37.85;100754.59;7397699;19;20026;-69
2023/07/16 11:24:12;;;;;;;3.83;1.00;;;;;;;26.56;37.93;100756.22;7400236;19;20090;-68
2023/07/16 11:26:40;;;;;;;4.82;1.42;;;;;;;26.65;37.73;100753.56;7398787;19;20380;-68
2023/07/16 11:29:18;;;;;;;3.42;1.50;;;;;;;26.69;35.28;100770.28;7397119;19;20015;-68
2023/07/16 11:31:52;;;;;;;2.65;1.27;;;;;;;26.76;36.85;100775.97;7398265;19;20014;-67
2023/07/16 11:34:23;;;;;;;3.35;1.27;;;;;;;26.76;36.83;100766.06;7399467;19;20011;-67
2023/07/16 11:36:54;;;;;;;4.22;1.50;;;;;;;26.79;37.03;100760.41;7398947;19;20019;-68